sensor_id;sensor_type;location;lat;lon;timestamp;P1;durP1;ratioP1;P2;durP2;ratioP2
60851;SDS011;48553;50.766;2.900;2023-12-14T00:02:54;52.83;;;18.73;;
60851;SDS011;48553;50.766;2.900;2023-12-14T00:05:55;52.90;;;18.20;;
60851;SDS011;48553;50.766;2.900;2023-12-14T00:08:55;57.15;;;19.25;;
60851;SDS011;48553;50.766;2.900;2023-12-14T00:11:55;54.03;;;19.17;;
60851;SDS011;48553;50.766;2.900;2023-12-14T00:14:56;58.40;;;20.35;;
60851;SDS011;48553;50.766;2.900;2023-12-14T00:17:56;63.38;;;20.33;;
60851;SDS011;48553;50.766;2.900;2023-12-14T00:20:57;60.78;;;19.27;;
60851;SDS011;48553;50.766;2.900;2023-12-14T00:23:57;58.75;;;20.17;;
60851;SDS011;48553;50.766;2.900;2023-12-14T00:26:58;52.65;;;18.65;;
60851;SDS011;48553;50.766;2.900;2023-12-14T00:29:58;67.80;;;20.17;;
60851;SDS011;48553;50.766;2.900;2023-12-14T00:32:59;63.60;;;20.02;;
60851;SDS011;48553;50.766;2.900;2023-12-14T00:35:59;51.65;;;18.15;;
60851;SDS011;48553;50.766;2.900;2023-12-14T00:38:59;50.95;;;16.92;;
60851;SDS011;48553;50.766;2.900;2023-12-14T00:42:00;47.63;;;16.70;;
60851;SDS011;48553;50.766;2.900;2023-12-14T00:45:00;45.28;;;15.32;;
60851;SDS011;48553;50.766;2.900;2023-12-14T00:48:01;37.65;;;14.80;;
60851;SDS011;48553;50.766;2.900;2023-12-14T00:51:01;39.58;;;14.52;;
60851;SDS011;48553;50.766;2.900;2023-12-14T00:54:02;38.67;;;13.88;;
60851;SDS011;48553;50.766;2.900;2023-12-14T00:57:02;37.67;;;13.32;;
60851;SDS011;48553;50.766;2.900;2023-12-14T01:00:03;35.17;;;12.88;;
60851;SDS011;48553;50.766;2.900;2023-12-14T01:03:04;29.35;;;12.68;;
60851;SDS011;48553;50.766;2.900;2023-12-14T01:06:04;29.65;;;12.63;;
60851;SDS011;48553;50.766;2.900;2023-12-14T01:09:05;27.38;;;12.32;;
60851;SDS011;48553;50.766;2.900;2023-12-14T01:12:05;28.65;;;11.45;;
60851;SDS011;48553;50.766;2.900;2023-12-14T01:15:06;30.42;;;10.70;;
60851;SDS011;48553;50.766;2.900;2023-12-14T01:18:06;26.38;;;9.95;;
60851;SDS011;48553;50.766;2.900;2023-12-14T01:21:07;19.63;;;9.27;;
60851;SDS011;48553;50.766;2.900;2023-12-14T01:24:07;19.58;;;8.57;;
60851;SDS011;48553;50.766;2.900;2023-12-14T01:27:08;22.67;;;8.45;;
60851;SDS011;48553;50.766;2.900;2023-12-14T01:30:10;21.77;;;8.20;;
60851;SDS011;48553;50.766;2.900;2023-12-14T01:33:11;20.95;;;8.10;;
60851;SDS011;48553;50.766;2.900;2023-12-14T01:36:11;18.83;;;7.82;;
60851;SDS011;48553;50.766;2.900;2023-12-14T01:39:12;17.00;;;7.07;;
60851;SDS011;48553;50.766;2.900;2023-12-14T01:42:12;24.15;;;6.78;;
60851;SDS011;48553;50.766;2.900;2023-12-14T01:45:13;17.20;;;6.72;;
60851;SDS011;48553;50.766;2.900;2023-12-14T01:48:16;19.33;;;6.32;;
60851;SDS011;48553;50.766;2.900;2023-12-14T01:51:16;16.27;;;6.03;;
60851;SDS011;48553;50.766;2.900;2023-12-14T01:54:17;12.75;;;5.25;;
60851;SDS011;48553;50.766;2.900;2023-12-14T01:57:18;15.02;;;5.30;;
60851;SDS011;48553;50.766;2.900;2023-12-14T02:00:36;12.27;;;5.20;;
60851;SDS011;48553;50.766;2.900;2023-12-14T02:03:48;17.20;;;5.03;;
60851;SDS011;48553;50.766;2.900;2023-12-14T02:06:50;14.60;;;4.40;;
60851;SDS011;48553;50.766;2.900;2023-12-14T02:09:51;11.07;;;3.95;;
60851;SDS011;48553;50.766;2.900;2023-12-14T02:12:51;11.57;;;3.88;;
60851;SDS011;48553;50.766;2.900;2023-12-14T02:15:52;15.75;;;4.43;;
60851;SDS011;48553;50.766;2.900;2023-12-14T02:18:54;13.25;;;3.97;;
60851;SDS011;48553;50.766;2.900;2023-12-14T02:21:54;11.13;;;3.95;;
60851;SDS011;48553;50.766;2.900;2023-12-14T02:24:54;11.15;;;3.38;;
60851;SDS011;48553;50.766;2.900;2023-12-14T02:27:55;12.10;;;3.80;;
60851;SDS011;48553;50.766;2.900;2023-12-14T02:30:56;12.57;;;3.55;;
60851;SDS011;48553;50.766;2.900;2023-12-14T02:33:56;11.02;;;3.88;;
60851;SDS011;48553;50.766;2.900;2023-12-14T02:36:56;15.30;;;3.60;;
60851;SDS011;48553;50.766;2.900;2023-12-14T02:39:57;7.50;;;3.15;;
60851;SDS011;48553;50.766;2.900;2023-12-14T02:42:58;9.60;;;3.30;;
60851;SDS011;48553;50.766;2.900;2023-12-14T02:45:59;13.52;;;3.63;;
60851;SDS011;48553;50.766;2.900;2023-12-14T02:49:02;13.05;;;3.67;;
60851;SDS011;48553;50.766;2.900;2023-12-14T02:52:02;14.27;;;3.50;;
60851;SDS011;48553;50.766;2.900;2023-12-14T02:55:03;12.77;;;3.63;;
60851;SDS011;48553;50.766;2.900;2023-12-14T02:58:04;15.65;;;3.50;;
60851;SDS011;48553;50.766;2.900;2023-12-14T03:01:04;11.13;;;3.75;;
60851;SDS011;48553;50.766;2.900;2023-12-14T03:04:06;11.18;;;3.15;;
60851;SDS011;48553;50.766;2.900;2023-12-14T03:07:07;10.95;;;3.42;;
60851;SDS011;48553;50.766;2.900;2023-12-14T03:10:07;12.98;;;3.53;;
60851;SDS011;48553;50.766;2.900;2023-12-14T03:13:08;16.10;;;4.18;;
60851;SDS011;48553;50.766;2.900;2023-12-14T03:16:08;10.90;;;3.70;;
60851;SDS011;48553;50.766;2.900;2023-12-14T03:19:09;13.93;;;3.83;;
60851;SDS011;48553;50.766;2.900;2023-12-14T03:22:09;14.30;;;4.07;;
60851;SDS011;48553;50.766;2.900;2023-12-14T03:25:10;13.10;;;3.97;;
60851;SDS011;48553;50.766;2.900;2023-12-14T03:28:11;10.98;;;4.00;;
60851;SDS011;48553;50.766;2.900;2023-12-14T03:31:11;10.20;;;3.78;;
60851;SDS011;48553;50.766;2.900;2023-12-14T03:34:13;13.25;;;3.70;;
60851;SDS011;48553;50.766;2.900;2023-12-14T03:37:13;11.77;;;3.83;;
60851;SDS011;48553;50.766;2.900;2023-12-14T03:40:14;12.27;;;4.10;;
60851;SDS011;48553;50.766;2.900;2023-12-14T03:43:14;16.27;;;4.03;;
60851;SDS011;48553;50.766;2.900;2023-12-14T03:46:15;13.50;;;3.60;;
60851;SDS011;48553;50.766;2.900;2023-12-14T03:49:15;12.35;;;4.05;;
60851;SDS011;48553;50.766;2.900;2023-12-14T03:52:16;9.77;;;3.78;;
60851;SDS011;48553;50.766;2.900;2023-12-14T03:55:16;10.68;;;3.65;;
60851;SDS011;48553;50.766;2.900;2023-12-14T03:58:17;9.75;;;3.90;;
60851;SDS011;48553;50.766;2.900;2023-12-14T04:01:17;11.90;;;3.53;;
60851;SDS011;48553;50.766;2.900;2023-12-14T04:04:19;9.23;;;3.80;;
60851;SDS011;48553;50.766;2.900;2023-12-14T04:07:20;13.27;;;4.10;;
60851;SDS011;48553;50.766;2.900;2023-12-14T04:10:20;14.63;;;4.20;;
60851;SDS011;48553;50.766;2.900;2023-12-14T04:13:20;16.02;;;4.32;;
60851;SDS011;48553;50.766;2.900;2023-12-14T04:16:21;9.02;;;3.80;;
60851;SDS011;48553;50.766;2.900;2023-12-14T04:19:22;10.27;;;4.05;;
60851;SDS011;48553;50.766;2.900;2023-12-14T04:22:22;13.43;;;4.30;;
60851;SDS011;48553;50.766;2.900;2023-12-14T04:25:23;11.90;;;3.78;;
60851;SDS011;48553;50.766;2.900;2023-12-14T04:28:23;19.35;;;4.50;;
60851;SDS011;48553;50.766;2.900;2023-12-14T04:31:24;12.70;;;4.00;;
60851;SDS011;48553;50.766;2.900;2023-12-14T04:34:24;11.30;;;4.00;;
60851;SDS011;48553;50.766;2.900;2023-12-14T04:37:25;11.32;;;4.15;;
60851;SDS011;48553;50.766;2.900;2023-12-14T04:40:25;12.27;;;4.07;;
60851;SDS011;48553;50.766;2.900;2023-12-14T04:43:25;12.15;;;4.50;;
60851;SDS011;48553;50.766;2.900;2023-12-14T04:46:29;11.70;;;4.30;;
60851;SDS011;48553;50.766;2.900;2023-12-14T04:49:29;14.70;;;4.43;;
60851;SDS011;48553;50.766;2.900;2023-12-14T04:52:30;11.80;;;4.28;;
60851;SDS011;48553;50.766;2.900;2023-12-14T04:55:30;17.45;;;4.70;;
60851;SDS011;48553;50.766;2.900;2023-12-14T04:58:31;12.15;;;4.47;;
60851;SDS011;48553;50.766;2.900;2023-12-14T05:01:31;14.63;;;4.40;;
60851;SDS011;48553;50.766;2.900;2023-12-14T05:04:32;11.30;;;4.32;;
60851;SDS011;48553;50.766;2.900;2023-12-14T05:07:32;10.48;;;4.50;;
60851;SDS011;48553;50.766;2.900;2023-12-14T05:10:33;18.55;;;4.68;;
60851;SDS011;48553;50.766;2.900;2023-12-14T05:16:36;14.20;;;4.22;;
60851;SDS011;48553;50.766;2.900;2023-12-14T05:19:37;13.60;;;4.72;;
60851;SDS011;48553;50.766;2.900;2023-12-14T05:22:37;13.50;;;4.47;;
60851;SDS011;48553;50.766;2.900;2023-12-14T05:25:38;16.08;;;4.45;;
60851;SDS011;48553;50.766;2.900;2023-12-14T05:28:38;11.23;;;4.15;;
60851;SDS011;48553;50.766;2.900;2023-12-14T05:31:39;11.93;;;4.57;;
60851;SDS011;48553;50.766;2.900;2023-12-14T05:34:39;14.77;;;4.80;;
60851;SDS011;48553;50.766;2.900;2023-12-14T05:37:39;13.45;;;4.47;;
60851;SDS011;48553;50.766;2.900;2023-12-14T05:40:41;13.13;;;4.82;;
60851;SDS011;48553;50.766;2.900;2023-12-14T05:43:42;12.88;;;4.57;;
60851;SDS011;48553;50.766;2.900;2023-12-14T05:46:43;9.48;;;4.50;;
60851;SDS011;48553;50.766;2.900;2023-12-14T05:49:43;14.27;;;4.88;;
60851;SDS011;48553;50.766;2.900;2023-12-14T05:52:44;13.48;;;4.85;;
60851;SDS011;48553;50.766;2.900;2023-12-14T05:55:46;12.20;;;4.78;;
60851;SDS011;48553;50.766;2.900;2023-12-14T05:58:46;10.30;;;4.35;;
60851;SDS011;48553;50.766;2.900;2023-12-14T06:01:47;11.65;;;4.53;;
60851;SDS011;48553;50.766;2.900;2023-12-14T06:04:47;13.00;;;4.78;;
60851;SDS011;48553;50.766;2.900;2023-12-14T06:07:48;13.82;;;4.55;;
60851;SDS011;48553;50.766;2.900;2023-12-14T06:10:48;13.18;;;4.85;;
60851;SDS011;48553;50.766;2.900;2023-12-14T06:13:49;16.17;;;4.80;;
60851;SDS011;48553;50.766;2.900;2023-12-14T06:16:49;13.32;;;4.60;;
60851;SDS011;48553;50.766;2.900;2023-12-14T06:19:49;11.68;;;4.75;;
60851;SDS011;48553;50.766;2.900;2023-12-14T06:22:50;14.63;;;4.57;;
60851;SDS011;48553;50.766;2.900;2023-12-14T06:25:50;14.82;;;4.90;;
60851;SDS011;48553;50.766;2.900;2023-12-14T06:28:51;13.15;;;4.57;;
60851;SDS011;48553;50.766;2.900;2023-12-14T06:31:51;10.70;;;4.70;;
60851;SDS011;48553;50.766;2.900;2023-12-14T06:34:52;14.55;;;5.25;;
60851;SDS011;48553;50.766;2.900;2023-12-14T06:37:53;15.43;;;5.28;;
60851;SDS011;48553;50.766;2.900;2023-12-14T06:40:53;11.60;;;4.75;;
60851;SDS011;48553;50.766;2.900;2023-12-14T06:43:54;15.38;;;5.10;;
60851;SDS011;48553;50.766;2.900;2023-12-14T06:46:55;14.23;;;5.15;;
60851;SDS011;48553;50.766;2.900;2023-12-14T06:49:56;15.52;;;5.07;;
60851;SDS011;48553;50.766;2.900;2023-12-14T06:52:59;13.13;;;4.70;;
60851;SDS011;48553;50.766;2.900;2023-12-14T06:56:00;12.43;;;4.47;;
60851;SDS011;48553;50.766;2.900;2023-12-14T06:59:00;17.05;;;5.43;;
60851;SDS011;48553;50.766;2.900;2023-12-14T07:02:01;12.00;;;4.95;;
60851;SDS011;48553;50.766;2.900;2023-12-14T07:05:01;13.10;;;5.35;;
60851;SDS011;48553;50.766;2.900;2023-12-14T07:08:01;12.02;;;5.13;;
60851;SDS011;48553;50.766;2.900;2023-12-14T07:11:02;12.35;;;5.38;;
60851;SDS011;48553;50.766;2.900;2023-12-14T07:14:02;14.93;;;5.63;;
60851;SDS011;48553;50.766;2.900;2023-12-14T07:17:03;11.73;;;5.00;;
60851;SDS011;48553;50.766;2.900;2023-12-14T07:20:03;12.32;;;5.63;;
60851;SDS011;48553;50.766;2.900;2023-12-14T07:23:06;11.05;;;4.97;;
60851;SDS011;48553;50.766;2.900;2023-12-14T07:26:06;12.82;;;4.60;;
60851;SDS011;48553;50.766;2.900;2023-12-14T07:29:07;12.48;;;5.10;;
60851;SDS011;48553;50.766;2.900;2023-12-14T07:32:07;11.35;;;4.85;;
60851;SDS011;48553;50.766;2.900;2023-12-14T07:35:08;13.40;;;5.10;;
60851;SDS011;48553;50.766;2.900;2023-12-14T07:38:12;11.32;;;4.85;;
60851;SDS011;48553;50.766;2.900;2023-12-14T07:41:12;12.68;;;5.03;;
60851;SDS011;48553;50.766;2.900;2023-12-14T07:44:13;15.32;;;5.40;;
60851;SDS011;48553;50.766;2.900;2023-12-14T07:47:13;13.20;;;5.10;;
60851;SDS011;48553;50.766;2.900;2023-12-14T07:50:13;14.85;;;5.18;;
60851;SDS011;48553;50.766;2.900;2023-12-14T07:53:14;15.45;;;5.65;;
60851;SDS011;48553;50.766;2.900;2023-12-14T07:56:15;14.52;;;5.25;;
60851;SDS011;48553;50.766;2.900;2023-12-14T07:59:15;13.45;;;5.43;;
60851;SDS011;48553;50.766;2.900;2023-12-14T08:02:16;15.38;;;5.68;;
60851;SDS011;48553;50.766;2.900;2023-12-14T08:05:16;14.18;;;6.00;;
60851;SDS011;48553;50.766;2.900;2023-12-14T08:08:17;16.63;;;5.97;;
60851;SDS011;48553;50.766;2.900;2023-12-14T08:11:17;15.02;;;5.75;;
60851;SDS011;48553;50.766;2.900;2023-12-14T08:14:17;16.17;;;6.30;;
60851;SDS011;48553;50.766;2.900;2023-12-14T08:17:18;14.65;;;5.90;;
60851;SDS011;48553;50.766;2.900;2023-12-14T08:20:18;11.85;;;5.53;;
60851;SDS011;48553;50.766;2.900;2023-12-14T08:23:19;13.50;;;5.28;;
60851;SDS011;48553;50.766;2.900;2023-12-14T08:26:19;12.15;;;5.13;;
60851;SDS011;48553;50.766;2.900;2023-12-14T08:29:19;12.70;;;5.13;;
60851;SDS011;48553;50.766;2.900;2023-12-14T08:32:20;12.07;;;5.35;;
60851;SDS011;48553;50.766;2.900;2023-12-14T08:35:21;13.77;;;5.50;;
60851;SDS011;48553;50.766;2.900;2023-12-14T08:38:21;13.43;;;5.60;;
60851;SDS011;48553;50.766;2.900;2023-12-14T08:41:22;11.50;;;4.97;;
60851;SDS011;48553;50.766;2.900;2023-12-14T08:44:22;10.80;;;4.68;;
60851;SDS011;48553;50.766;2.900;2023-12-14T08:47:23;9.80;;;4.85;;
60851;SDS011;48553;50.766;2.900;2023-12-14T08:50:23;11.90;;;4.30;;
60851;SDS011;48553;50.766;2.900;2023-12-14T08:53:26;12.98;;;4.30;;
60851;SDS011;48553;50.766;2.900;2023-12-14T08:56:27;8.00;;;3.83;;
60851;SDS011;48553;50.766;2.900;2023-12-14T08:59:27;9.60;;;3.75;;
60851;SDS011;48553;50.766;2.900;2023-12-14T09:02:28;8.52;;;3.72;;
60851;SDS011;48553;50.766;2.900;2023-12-14T09:05:28;8.35;;;3.65;;
60851;SDS011;48553;50.766;2.900;2023-12-14T09:08:29;9.77;;;3.70;;
60851;SDS011;48553;50.766;2.900;2023-12-14T09:11:29;8.23;;;3.30;;
60851;SDS011;48553;50.766;2.900;2023-12-14T09:14:29;9.52;;;3.10;;
60851;SDS011;48553;50.766;2.900;2023-12-14T09:17:30;10.70;;;2.95;;
60851;SDS011;48553;50.766;2.900;2023-12-14T09:20:33;8.30;;;2.92;;
60851;SDS011;48553;50.766;2.900;2023-12-14T09:23:35;13.38;;;2.90;;
60851;SDS011;48553;50.766;2.900;2023-12-14T09:26:35;14.70;;;3.17;;
60851;SDS011;48553;50.766;2.900;2023-12-14T09:29:36;7.85;;;2.72;;
60851;SDS011;48553;50.766;2.900;2023-12-14T09:32:36;10.73;;;2.72;;
60851;SDS011;48553;50.766;2.900;2023-12-14T09:35:37;10.45;;;2.97;;
60851;SDS011;48553;50.766;2.900;2023-12-14T09:38:38;9.30;;;3.40;;
60851;SDS011;48553;50.766;2.900;2023-12-14T09:41:39;9.45;;;3.40;;
60851;SDS011;48553;50.766;2.900;2023-12-14T09:44:39;10.60;;;3.47;;
60851;SDS011;48553;50.766;2.900;2023-12-14T09:47:40;10.73;;;3.38;;
60851;SDS011;48553;50.766;2.900;2023-12-14T09:50:41;9.90;;;3.40;;
60851;SDS011;48553;50.766;2.900;2023-12-14T09:53:43;9.35;;;3.88;;
60851;SDS011;48553;50.766;2.900;2023-12-14T09:56:45;11.23;;;3.33;;
60851;SDS011;48553;50.766;2.900;2023-12-14T09:59:50;11.50;;;3.47;;
60851;SDS011;48553;50.766;2.900;2023-12-14T10:02:54;9.00;;;3.15;;
60851;SDS011;48553;50.766;2.900;2023-12-14T10:05:55;8.65;;;2.88;;
60851;SDS011;48553;50.766;2.900;2023-12-14T10:08:56;9.43;;;2.63;;
60851;SDS011;48553;50.766;2.900;2023-12-14T10:12:07;10.43;;;3.10;;
60851;SDS011;48553;50.766;2.900;2023-12-14T10:15:09;7.63;;;2.78;;
60851;SDS011;48553;50.766;2.900;2023-12-14T10:18:09;7.35;;;2.40;;
60851;SDS011;48553;50.766;2.900;2023-12-14T10:21:10;7.85;;;2.38;;
60851;SDS011;48553;50.766;2.900;2023-12-14T10:24:11;10.93;;;3.40;;
60851;SDS011;48553;50.766;2.900;2023-12-14T10:27:13;11.52;;;3.50;;
60851;SDS011;48553;50.766;2.900;2023-12-14T10:30:14;12.25;;;2.85;;
60851;SDS011;48553;50.766;2.900;2023-12-14T10:33:15;8.77;;;2.42;;
60851;SDS011;48553;50.766;2.900;2023-12-14T10:36:18;7.47;;;2.70;;
60851;SDS011;48553;50.766;2.900;2023-12-14T10:39:24;9.77;;;2.80;;
60851;SDS011;48553;50.766;2.900;2023-12-14T10:42:26;7.50;;;2.35;;
60851;SDS011;48553;50.766;2.900;2023-12-14T10:45:32;8.60;;;3.00;;
60851;SDS011;48553;50.766;2.900;2023-12-14T10:48:34;10.80;;;2.95;;
60851;SDS011;48553;50.766;2.900;2023-12-14T10:51:41;6.20;;;2.55;;
60851;SDS011;48553;50.766;2.900;2023-12-14T10:54:42;8.18;;;2.83;;
60851;SDS011;48553;50.766;2.900;2023-12-14T10:57:45;6.78;;;2.85;;
60851;SDS011;48553;50.766;2.900;2023-12-14T11:01:01;7.57;;;2.38;;
60851;SDS011;48553;50.766;2.900;2023-12-14T11:04:01;9.55;;;2.83;;
60851;SDS011;48553;50.766;2.900;2023-12-14T11:07:02;11.48;;;2.75;;
60851;SDS011;48553;50.766;2.900;2023-12-14T11:10:05;6.95;;;2.65;;
60851;SDS011;48553;50.766;2.900;2023-12-14T11:13:08;8.88;;;3.20;;
60851;SDS011;48553;50.766;2.900;2023-12-14T11:16:12;9.70;;;2.90;;
60851;SDS011;48553;50.766;2.900;2023-12-14T11:22:26;11.52;;;2.67;;
60851;SDS011;48553;50.766;2.900;2023-12-14T11:25:27;9.45;;;2.63;;
60851;SDS011;48553;50.766;2.900;2023-12-14T11:28:28;11.15;;;2.92;;
60851;SDS011;48553;50.766;2.900;2023-12-14T11:31:30;12.23;;;2.95;;
60851;SDS011;48553;50.766;2.900;2023-12-14T11:34:30;7.57;;;2.70;;
60851;SDS011;48553;50.766;2.900;2023-12-14T11:37:31;7.90;;;2.50;;
60851;SDS011;48553;50.766;2.900;2023-12-14T11:40:34;9.65;;;2.60;;
60851;SDS011;48553;50.766;2.900;2023-12-14T11:43:38;8.23;;;2.50;;
60851;SDS011;48553;50.766;2.900;2023-12-14T11:46:43;12.52;;;2.53;;
60851;SDS011;48553;50.766;2.900;2023-12-14T11:49:44;8.55;;;2.30;;
60851;SDS011;48553;50.766;2.900;2023-12-14T11:52:44;9.32;;;2.10;;
60851;SDS011;48553;50.766;2.900;2023-12-14T11:55:44;9.88;;;2.50;;
60851;SDS011;48553;50.766;2.900;2023-12-14T11:58:45;6.88;;;2.20;;
60851;SDS011;48553;50.766;2.900;2023-12-14T12:01:59;9.32;;;2.30;;
60851;SDS011;48553;50.766;2.900;2023-12-14T12:05:01;6.55;;;2.10;;
60851;SDS011;48553;50.766;2.900;2023-12-14T12:08:01;7.78;;;2.03;;
60851;SDS011;48553;50.766;2.900;2023-12-14T12:11:01;7.13;;;2.13;;
60851;SDS011;48553;50.766;2.900;2023-12-14T12:14:03;9.75;;;2.30;;
60851;SDS011;48553;50.766;2.900;2023-12-14T12:17:05;8.48;;;2.03;;
60851;SDS011;48553;50.766;2.900;2023-12-14T12:20:06;8.63;;;1.98;;
60851;SDS011;48553;50.766;2.900;2023-12-14T12:23:07;7.53;;;2.00;;
60851;SDS011;48553;50.766;2.900;2023-12-14T12:26:08;6.55;;;2.20;;
60851;SDS011;48553;50.766;2.900;2023-12-14T12:29:09;6.57;;;2.30;;
60851;SDS011;48553;50.766;2.900;2023-12-14T12:32:09;11.10;;;1.92;;
60851;SDS011;48553;50.766;2.900;2023-12-14T12:35:10;7.57;;;2.17;;
60851;SDS011;48553;50.766;2.900;2023-12-14T12:38:10;6.90;;;1.70;;
60851;SDS011;48553;50.766;2.900;2023-12-14T12:41:11;3.70;;;1.70;;
60851;SDS011;48553;50.766;2.900;2023-12-14T12:44:11;7.20;;;2.08;;
60851;SDS011;48553;50.766;2.900;2023-12-14T12:47:12;7.10;;;2.17;;
60851;SDS011;48553;50.766;2.900;2023-12-14T12:50:12;8.15;;;2.33;;
60851;SDS011;48553;50.766;2.900;2023-12-14T12:53:13;10.13;;;2.13;;
60851;SDS011;48553;50.766;2.900;2023-12-14T12:56:13;9.10;;;2.50;;
60851;SDS011;48553;50.766;2.900;2023-12-14T12:59:14;8.90;;;2.13;;
60851;SDS011;48553;50.766;2.900;2023-12-14T13:02:14;4.10;;;1.70;;
60851;SDS011;48553;50.766;2.900;2023-12-14T13:05:15;5.45;;;2.00;;
60851;SDS011;48553;50.766;2.900;2023-12-14T13:08:15;8.65;;;2.25;;
60851;SDS011;48553;50.766;2.900;2023-12-14T13:11:16;5.28;;;2.00;;
60851;SDS011;48553;50.766;2.900;2023-12-14T13:14:16;8.50;;;2.53;;
60851;SDS011;48553;50.766;2.900;2023-12-14T13:17:16;8.13;;;2.20;;
60851;SDS011;48553;50.766;2.900;2023-12-14T13:20:18;6.93;;;2.03;;
60851;SDS011;48553;50.766;2.900;2023-12-14T13:23:19;6.50;;;2.20;;
60851;SDS011;48553;50.766;2.900;2023-12-14T13:26:19;8.65;;;2.08;;
60851;SDS011;48553;50.766;2.900;2023-12-14T13:29:20;5.13;;;2.08;;
60851;SDS011;48553;50.766;2.900;2023-12-14T13:32:20;9.45;;;2.75;;
60851;SDS011;48553;50.766;2.900;2023-12-14T13:35:21;10.40;;;2.35;;
60851;SDS011;48553;50.766;2.900;2023-12-14T13:38:22;5.60;;;2.10;;
60851;SDS011;48553;50.766;2.900;2023-12-14T13:41:22;6.25;;;2.30;;
60851;SDS011;48553;50.766;2.900;2023-12-14T13:44:23;7.85;;;2.20;;
60851;SDS011;48553;50.766;2.900;2023-12-14T13:47:23;7.93;;;2.10;;
60851;SDS011;48553;50.766;2.900;2023-12-14T13:50:24;7.70;;;2.10;;
60851;SDS011;48553;50.766;2.900;2023-12-14T13:53:26;7.18;;;2.28;;
60851;SDS011;48553;50.766;2.900;2023-12-14T13:56:26;7.13;;;2.13;;
60851;SDS011;48553;50.766;2.900;2023-12-14T13:59:28;8.75;;;2.67;;
60851;SDS011;48553;50.766;2.900;2023-12-14T14:02:28;5.38;;;2.42;;
60851;SDS011;48553;50.766;2.900;2023-12-14T14:05:29;6.85;;;2.35;;
60851;SDS011;48553;50.766;2.900;2023-12-14T14:08:30;7.55;;;2.53;;
60851;SDS011;48553;50.766;2.900;2023-12-14T14:11:33;6.40;;;2.55;;
60851;SDS011;48553;50.766;2.900;2023-12-14T14:14:35;6.10;;;2.10;;
60851;SDS011;48553;50.766;2.900;2023-12-14T14:17:35;8.43;;;1.85;;
60851;SDS011;48553;50.766;2.900;2023-12-14T14:20:36;6.93;;;2.35;;
60851;SDS011;48553;50.766;2.900;2023-12-14T14:23:37;6.63;;;2.60;;
60851;SDS011;48553;50.766;2.900;2023-12-14T14:26:37;6.97;;;2.05;;
60851;SDS011;48553;50.766;2.900;2023-12-14T14:29:37;7.85;;;2.20;;
60851;SDS011;48553;50.766;2.900;2023-12-14T14:32:38;9.27;;;2.20;;
60851;SDS011;48553;50.766;2.900;2023-12-14T14:35:38;8.25;;;2.05;;
60851;SDS011;48553;50.766;2.900;2023-12-14T14:38:39;6.70;;;1.90;;
60851;SDS011;48553;50.766;2.900;2023-12-14T14:41:39;5.97;;;1.67;;
60851;SDS011;48553;50.766;2.900;2023-12-14T14:44:40;7.78;;;2.13;;
60851;SDS011;48553;50.766;2.900;2023-12-14T14:47:40;6.35;;;2.10;;
60851;SDS011;48553;50.766;2.900;2023-12-14T14:50:43;5.90;;;1.65;;
60851;SDS011;48553;50.766;2.900;2023-12-14T14:53:44;5.63;;;2.08;;
60851;SDS011;48553;50.766;2.900;2023-12-14T14:56:45;8.18;;;1.92;;
60851;SDS011;48553;50.766;2.900;2023-12-14T14:59:45;5.63;;;2.05;;
60851;SDS011;48553;50.766;2.900;2023-12-14T15:02:46;8.73;;;2.13;;
60851;SDS011;48553;50.766;2.900;2023-12-14T15:05:46;8.18;;;2.38;;
60851;SDS011;48553;50.766;2.900;2023-12-14T15:08:46;8.18;;;2.00;;
60851;SDS011;48553;50.766;2.900;2023-12-14T15:11:47;7.55;;;2.15;;
60851;SDS011;48553;50.766;2.900;2023-12-14T15:14:48;9.20;;;2.35;;
60851;SDS011;48553;50.766;2.900;2023-12-14T15:17:48;5.70;;;2.20;;
60851;SDS011;48553;50.766;2.900;2023-12-14T15:20:48;6.65;;;2.42;;
60851;SDS011;48553;50.766;2.900;2023-12-14T15:23:51;6.85;;;2.03;;
60851;SDS011;48553;50.766;2.900;2023-12-14T15:26:52;6.10;;;2.47;;
60851;SDS011;48553;50.766;2.900;2023-12-14T15:29:52;8.68;;;2.63;;
60851;SDS011;48553;50.766;2.900;2023-12-14T15:32:53;8.18;;;2.50;;
60851;SDS011;48553;50.766;2.900;2023-12-14T15:35:54;6.50;;;2.22;;
60851;SDS011;48553;50.766;2.900;2023-12-14T15:38:54;9.90;;;2.47;;
60851;SDS011;48553;50.766;2.900;2023-12-14T15:41:55;7.82;;;2.53;;
60851;SDS011;48553;50.766;2.900;2023-12-14T15:44:55;9.50;;;2.90;;
60851;SDS011;48553;50.766;2.900;2023-12-14T15:47:56;8.45;;;2.85;;
60851;SDS011;48553;50.766;2.900;2023-12-14T15:50:56;7.57;;;2.50;;
60851;SDS011;48553;50.766;2.900;2023-12-14T15:53:57;8.15;;;2.35;;
60851;SDS011;48553;50.766;2.900;2023-12-14T15:56:59;7.80;;;3.03;;
60851;SDS011;48553;50.766;2.900;2023-12-14T16:00:00;9.13;;;2.50;;
60851;SDS011;48553;50.766;2.900;2023-12-14T16:03:00;7.78;;;2.75;;
60851;SDS011;48553;50.766;2.900;2023-12-14T16:06:01;8.15;;;2.85;;
60851;SDS011;48553;50.766;2.900;2023-12-14T16:09:01;7.28;;;2.85;;
60851;SDS011;48553;50.766;2.900;2023-12-14T16:12:03;6.30;;;2.90;;
60851;SDS011;48553;50.766;2.900;2023-12-14T16:15:04;6.68;;;3.10;;
60851;SDS011;48553;50.766;2.900;2023-12-14T16:18:06;6.18;;;3.10;;
60851;SDS011;48553;50.766;2.900;2023-12-14T16:21:06;8.57;;;2.95;;
60851;SDS011;48553;50.766;2.900;2023-12-14T16:24:07;7.78;;;2.95;;
60851;SDS011;48553;50.766;2.900;2023-12-14T16:27:08;7.28;;;3.05;;
60851;SDS011;48553;50.766;2.900;2023-12-14T16:30:08;6.35;;;3.05;;
60851;SDS011;48553;50.766;2.900;2023-12-14T16:33:09;9.90;;;3.75;;
60851;SDS011;48553;50.766;2.900;2023-12-14T16:36:13;7.28;;;3.50;;
60851;SDS011;48553;50.766;2.900;2023-12-14T16:39:14;9.63;;;3.53;;
60851;SDS011;48553;50.766;2.900;2023-12-14T16:42:15;9.13;;;3.75;;
60851;SDS011;48553;50.766;2.900;2023-12-14T16:45:15;8.02;;;3.45;;
60851;SDS011;48553;50.766;2.900;2023-12-14T16:48:16;10.95;;;3.92;;
60851;SDS011;48553;50.766;2.900;2023-12-14T16:51:19;8.40;;;3.65;;
60851;SDS011;48553;50.766;2.900;2023-12-14T16:54:20;7.93;;;3.60;;
60851;SDS011;48553;50.766;2.900;2023-12-14T16:57:20;8.15;;;3.35;;
60851;SDS011;48553;50.766;2.900;2023-12-14T17:00:24;9.95;;;3.72;;
60851;SDS011;48553;50.766;2.900;2023-12-14T17:03:25;9.10;;;3.70;;
60851;SDS011;48553;50.766;2.900;2023-12-14T17:06:25;10.50;;;3.80;;
60851;SDS011;48553;50.766;2.900;2023-12-14T17:09:25;8.70;;;3.53;;
60851;SDS011;48553;50.766;2.900;2023-12-14T17:12:29;10.82;;;3.75;;
60851;SDS011;48553;50.766;2.900;2023-12-14T17:15:30;8.40;;;4.10;;
60851;SDS011;48553;50.766;2.900;2023-12-14T17:18:30;10.40;;;3.55;;
60851;SDS011;48553;50.766;2.900;2023-12-14T17:21:30;8.50;;;3.45;;
60851;SDS011;48553;50.766;2.900;2023-12-14T17:24:31;8.90;;;3.88;;
60851;SDS011;48553;50.766;2.900;2023-12-14T17:27:32;7.53;;;3.60;;
60851;SDS011;48553;50.766;2.900;2023-12-14T17:30:33;7.20;;;3.33;;
60851;SDS011;48553;50.766;2.900;2023-12-14T17:33:33;8.85;;;3.78;;
60851;SDS011;48553;50.766;2.900;2023-12-14T17:36:36;10.02;;;3.97;;
60851;SDS011;48553;50.766;2.900;2023-12-14T17:39:38;11.02;;;4.18;;
60851;SDS011;48553;50.766;2.900;2023-12-14T17:42:40;9.73;;;4.55;;
60851;SDS011;48553;50.766;2.900;2023-12-14T17:45:40;10.63;;;5.00;;
60851;SDS011;48553;50.766;2.900;2023-12-14T17:48:41;10.73;;;4.00;;
60851;SDS011;48553;50.766;2.900;2023-12-14T17:51:41;9.55;;;4.30;;
60851;SDS011;48553;50.766;2.900;2023-12-14T17:54:42;9.57;;;4.40;;
60851;SDS011;48553;50.766;2.900;2023-12-14T17:57:42;8.80;;;4.22;;
60851;SDS011;48553;50.766;2.900;2023-12-14T18:00:42;12.10;;;4.50;;
60851;SDS011;48553;50.766;2.900;2023-12-14T18:03:43;9.98;;;4.85;;
60851;SDS011;48553;50.766;2.900;2023-12-14T18:06:43;10.93;;;4.82;;